Aviation Digital Data Service (ADDS)

Output produced by METARs form (0452 UTC 23 February 2017)
found at http://aviationweather.gov/adds/metars/
 
KINT 230238Z 2302/2324 VRB03KT 2SM BR SCT002 OVC100 
     TEMPO 2302/2306 1SM BR BKN002 
     FM230600 00000KT 1SM BR BKN002 BKN120 
     TEMPO 2310/2313 1/2SM FG OVC005 
     FM231500 17004KT P6SM FEW030 BKN200